Orbital elements of FENGYUN 1C DEB
| Launched | 9 May 1999 |
| Flight ended | – |
| Launch site | Taiyuan Space Center, PRC |
| Owner | People's Republic of China |
| NORAD ID | 30641 |
| Date fetched |
Epoch osculation |
Inc. [°] |
Ecc. | RA asc node [hr] |
Arg Peri. [°] |
Mean anom [°] |
Mean motion [rev/day] |
Abs. mag |
| Date fetched |
Epoch osculation |
Inc. [°] |
Ecc. | RA asc node [hr] |
Arg Peri. [°] |
Mean anom [°] |
Mean motion [rev/day] |
Abs. mag |
| 2026 May 09 17:57 | 2026 May 04 08:03:31 | 98.9591 | 0.01323 | 5.3292 | 38.1245 | 122.3787 | 14.80749 | – |
| 2026 May 08 17:57 | 2026 May 04 08:03:31 | 98.9591 | 0.01323 | 5.3292 | 38.1245 | 122.3787 | 14.80749 | – |
| 2026 May 07 17:58 | 2026 May 04 08:03:31 | 98.9591 | 0.01323 | 5.3292 | 38.1245 | 122.3787 | 14.80749 | – |
| 2026 May 06 17:57 | 2026 May 04 08:03:31 | 98.9591 | 0.01323 | 5.3292 | 38.1245 | 122.3787 | 14.80749 | – |
| 2026 May 05 17:57 | 2026 May 04 08:03:31 | 98.9591 | 0.01323 | 5.3292 | 38.1245 | 122.3787 | 14.80749 | – |
| 2026 May 04 17:57 | 2026 Apr 30 14:55:47 | 98.9581 | 0.01326 | 5.0528 | 49.7181 | 122.3787 | 14.80749 | – |
| 2026 May 03 17:57 | 2026 Apr 30 14:55:47 | 98.9581 | 0.01326 | 5.0528 | 49.7181 | 122.3787 | 14.80749 | – |
| 2026 May 02 17:57 | 2026 Apr 30 14:55:47 | 98.9581 | 0.01326 | 5.0528 | 49.7181 | 122.3787 | 14.80749 | – |
| 2026 May 01 17:56 | 2026 Apr 30 14:55:47 | 98.9581 | 0.01326 | 5.0528 | 49.7181 | 122.3787 | 14.80749 | – |
| 2026 Apr 30 17:56 | 2026 Apr 30 14:55:47 | 98.9581 | 0.01326 | 5.0528 | 49.7181 | 122.3787 | 14.80749 | – |
| 2026 Apr 29 17:57 | 2026 Apr 24 07:59:32 | 98.9566 | 0.01330 | 4.5848 | 69.3803 | 122.3787 | 14.80749 | – |
| 2026 Apr 28 17:56 | 2026 Apr 24 07:59:32 | 98.9566 | 0.01330 | 4.5848 | 69.3803 | 122.3787 | 14.80749 | – |
| 2026 Apr 27 17:58 | 2026 Apr 24 07:59:32 | 98.9566 | 0.01330 | 4.5848 | 69.3803 | 122.3787 | 14.80749 | – |
| 2026 Apr 26 17:58 | 2026 Apr 24 07:59:32 | 98.9566 | 0.01330 | 4.5848 | 69.3803 | 122.3787 | 14.80749 | – |
| 2026 Apr 25 17:58 | 2026 Apr 24 07:59:32 | 98.9566 | 0.01330 | 4.5848 | 69.3803 | 122.3787 | 14.80749 | – |
| 2026 Apr 24 17:59 | 2026 Apr 24 07:59:32 | 98.9566 | 0.01330 | 4.5848 | 69.3803 | 122.3787 | 14.80749 | – |
| 2026 Apr 23 17:57 | 2026 Apr 19 07:58:07 | 98.9574 | 0.01331 | 4.2128 | 84.9775 | 122.3787 | 14.80749 | – |
| 2026 Apr 22 17:57 | 2026 Apr 19 07:58:07 | 98.9574 | 0.01331 | 4.2128 | 84.9775 | 122.3787 | 14.80749 | – |
| 2026 Apr 21 17:57 | 2026 Apr 19 07:58:07 | 98.9574 | 0.01331 | 4.2128 | 84.9775 | 122.3787 | 14.80749 | – |
| 2026 Apr 20 17:57 | 2026 Apr 19 07:58:07 | 98.9574 | 0.01331 | 4.2128 | 84.9775 | 122.3787 | 14.80749 | – |
| 2026 Apr 19 17:58 | 2026 Apr 19 07:58:07 | 98.9574 | 0.01331 | 4.2128 | 84.9775 | 122.3787 | 14.80749 | – |
| 2026 Apr 18 17:56 | 2026 Apr 13 07:37:37 | 98.9561 | 0.01330 | 3.7655 | 103.7597 | 122.3787 | 14.80749 | – |
| 2026 Apr 16 17:57 | 2026 Apr 13 07:37:37 | 98.9561 | 0.01330 | 3.7655 | 103.7597 | 122.3787 | 14.80749 | – |
| 2026 Apr 14 17:57 | 2026 Apr 13 07:37:37 | 98.9561 | 0.01330 | 3.7655 | 103.7597 | 122.3787 | 14.80749 | – |
| 2026 Apr 13 17:57 | 2026 Apr 13 07:37:37 | 98.9561 | 0.01330 | 3.7655 | 103.7597 | 122.3787 | 14.80749 | – |
| 2026 Apr 12 17:57 | 2026 Apr 08 15:47:12 | 98.9555 | 0.01330 | 3.4189 | 118.3089 | 122.3787 | 14.80749 | – |